Time;durP1;ratioP1;P1;durP2;ratioP2;P2;SDS_P1;SDS_P2;PMS_P1;PMS_P2;Temp;Humidity;BMP_temperature;BMP_pressure;BME280_temperature;BME280_humidity;BME280_pressure;Samples;Min_cycle;Max_cycle;Signal;HPM_P1;HPM_P2
2023/03/05 08:29:20;;;;;;;65.40;43.50;;;5.00;99.90;;;;;;5091185;28;20367;-62
2023/03/05 08:31:46;;;;;;;67.90;44.65;;;5.00;99.90;;;;;;5090886;28;20367;-63
2023/03/05 08:34:13;;;;;;;70.43;45.55;;;5.20;99.90;;;;;;5090599;28;20023;-63
2023/03/05 08:36:38;;;;;;;74.35;47.63;;;5.40;99.90;;;;;;5090717;28;20047;-65
2023/03/05 08:39:05;;;;;;;58.85;41.60;;;5.60;99.90;;;;;;5090588;28;20024;-63
2023/03/05 08:41:31;;;;;;;62.00;42.20;;;5.90;99.90;;;;;;5090770;28;20024;-64
2023/03/05 08:43:57;;;;;;;53.38;38.78;;;6.20;99.90;;;;;;5090589;28;20065;-62
2023/03/05 08:46:23;;;;;;;47.85;34.88;;;6.40;99.90;;;;;;5090465;28;20407;-63
2023/03/05 08:48:49;;;;;;;47.47;34.65;;;6.60;99.90;;;;;;5090316;28;20070;-62
2023/03/05 08:51:20;;;;;;;48.63;36.22;;;6.80;99.90;;;;;;5090637;28;20036;-63
2023/03/05 08:53:46;;;;;;;73.55;45.53;;;6.90;99.90;;;;;;5090282;28;20462;-66
2023/03/05 08:56:13;;;;;;;86.97;55.90;;;7.00;99.90;;;;;;5090258;28;20023;-62
2023/03/05 08:58:39;;;;;;;82.72;56.28;;;6.90;99.90;;;;;;5090269;28;20035;-62
2023/03/05 09:01:05;;;;;;;74.40;52.00;;;6.80;99.90;;;;;;5090256;28;20032;-66
2023/03/05 09:03:31;;;;;;;66.05;46.33;;;7.00;99.90;;;;;;5090152;28;20535;-63
2023/03/05 09:06:02;;;;;;;65.07;42.63;;;7.10;99.90;;;;;;5090385;28;20099;-64
2023/03/05 09:08:28;;;;;;;60.58;42.90;;;7.20;99.90;;;;;;5090152;28;20024;-63
2023/03/05 09:10:54;;;;;;;50.05;35.80;;;7.40;99.90;;;;;;5089980;28;20094;-66
2023/03/05 09:13:19;;;;;;;49.70;35.47;;;7.60;99.90;;;;;;5090038;28;20078;-61
2023/03/05 09:15:52;;;;;;;67.35;47.83;;;7.80;99.90;;;;;;5090053;28;20492;-64
2023/03/05 09:18:18;;;;;;;53.97;40.47;;;8.00;99.90;;;;;;5089893;28;20020;-65
2023/03/05 09:20:44;;;;;;;53.60;39.88;;;8.10;99.90;;;;;;5089857;28;20032;-62
2023/03/05 09:23:09;;;;;;;59.30;40.55;;;8.00;99.90;;;;;;5089683;28;20073;-62
2023/03/05 09:25:35;;;;;;;50.30;38.13;;;8.20;99.90;;;;;;5090021;28;20024;-65
2023/03/05 09:28:01;;;;;;;52.17;38.30;;;8.30;99.90;;;;;;5099412;28;20542;-63
2023/03/05 09:30:26;;;;;;;47.55;34.10;;;8.40;99.90;;;;;;5110002;28;20374;-68
2023/03/05 09:32:52;;;;;;;52.50;38.33;;;8.40;99.90;;;;;;5110253;28;20027;-63
2023/03/05 09:35:18;;;;;;;44.72;33.20;;;8.50;99.90;;;;;;5109877;28;20024;-63
2023/03/05 09:37:44;;;;;;;41.17;31.02;;;8.60;99.90;;;;;;5109563;28;20477;-66
2023/03/05 09:40:16;;;;;;;35.58;28.25;;;8.80;99.90;;;;;;5099422;28;20140;-63
2023/03/05 09:43:08;;;;;;;31.73;24.83;;;9.00;99.90;;;;;;5096143;28;20020;-64
2023/03/05 09:45:46;;;;;;;25.48;20.05;;;9.20;98.60;;;;;;5096438;28;20032;-63
2023/03/05 09:48:22;;;;;;;21.23;17.30;;;9.30;93.40;;;;;;5096299;28;20036;-62
2023/03/05 09:51:03;;;;;;;17.85;14.63;;;9.40;91.00;;;;;;5096151;28;20028;-63
2023/03/05 09:53:59;;;;;;;20.35;14.85;;;9.60;84.20;;;;;;5096152;28;20370;-63
2023/03/05 09:56:33;;;;;;;16.40;12.38;;;9.60;82.50;;;;;;5096155;28;20016;-61
2023/03/05 09:59:28;;;;;;;13.13;9.95;;;9.70;76.20;;;;;;5096107;28;20020;-64
2023/03/05 10:02:00;;;;;;;9.68;8.07;;;9.70;70.70;;;;;;5095866;28;20047;-62
2023/03/05 10:04:53;;;;;;;7.68;6.88;;;9.60;66.10;;;;;;5095862;28;20017;-61
2023/03/05 10:07:26;;;;;;;6.50;5.85;;;9.70;71.30;;;;;;5095856;28;20036;-64
2023/03/05 10:10:13;;;;;;;13.07;9.48;;;9.80;65.60;;;;;;5077560;28;20424;-62
2023/03/05 10:12:58;;;;;;;9.77;7.68;;;10.00;65.10;;;;;;5095732;28;20423;-60
2023/03/05 10:15:30;;;;;;;7.00;6.30;;;10.10;67.90;;;;;;5095554;28;20478;-63
2023/03/05 10:18:14;;;;;;;10.32;8.57;;;10.40;67.50;;;;;;5095629;28;20108;-63
2023/03/05 10:20:53;;;;;;;8.75;7.38;;;10.60;66.60;;;;;;5095811;28;20475;-63
2023/03/05 10:23:30;;;;;;;8.38;5.47;;;10.90;61.60;;;;;;5095346;28;20028;-63
2023/03/05 10:26:17;;;;;;;6.07;4.65;;;10.80;61.90;;;;;;5095338;28;20021;-63
2023/03/05 10:29:30;;;;;;;5.78;4.72;;;10.50;59.40;;;;;;5095069;28;20040;-64
2023/03/05 10:32:19;;;;;;;7.75;6.10;;;10.50;63.50;;;;;;4993727;28;20126;-61
2023/03/05 10:35:10;;;;;;;8.65;7.10;;;10.70;62.60;;;;;;4993880;28;20050;-64
2023/03/05 10:38:17;;;;;;;10.13;7.28;;;10.60;60.50;;;;;;5073782;28;20382;-64
2023/03/05 10:40:43;;;;;;;7.97;6.97;;;10.70;59.40;;;;;;5094585;28;20064;-65
2023/03/05 10:43:23;;;;;;;7.35;6.60;;;10.90;58.30;;;;;;5095062;28;20055;-63
2023/03/05 10:45:52;;;;;;;6.70;6.07;;;10.90;61.00;;;;;;5094988;28;20500;-64
2023/03/05 10:48:41;;;;;;;10.65;7.40;;;11.10;61.30;;;;;;5095182;28;20385;-64
2023/03/05 10:51:33;;;;;;;10.02;8.40;;;11.30;58.60;;;;;;5093663;28;20024;-62
2023/03/05 10:54:24;;;;;;;8.38;7.28;;;11.10;61.90;;;;;;5094920;28;20101;-63
2023/03/05 10:57:00;;;;;;;8.07;7.22;;;11.40;62.80;;;;;;5094852;28;20524;-63
2023/03/05 10:59:27;;;;;;;9.60;7.32;;;11.70;64.40;;;;;;5094699;28;20393;-64
2023/03/05 11:02:07;;;;;;;13.40;9.52;;;11.90;61.30;;;;;;5094963;28;20378;-63
2023/03/05 11:04:35;;;;;;;9.35;7.97;;;11.80;57.90;;;;;;5094694;28;20027;-64
2023/03/05 11:07:21;;;;;;;9.07;7.22;;;11.80;60.70;;;;;;5094424;28;20035;-64
2023/03/05 11:09:59;;;;;;;8.82;7.40;;;12.10;60.70;;;;;;5077315;28;20024;-64
2023/03/05 11:12:30;;;;;;;8.10;6.80;;;12.30;57.60;;;;;;5094563;28;20471;-62
2023/03/05 11:15:08;;;;;;;6.78;6.05;;;12.40;56.80;;;;;;5094470;28;20026;-65
2023/03/05 11:17:37;;;;;;;7.30;6.60;;;12.30;53.20;;;;;;5094504;28;20485;-62
2023/03/05 11:20:25;;;;;;;7.75;6.13;;;12.30;57.50;;;;;;5094284;28;20020;-60
2023/03/05 11:23:17;;;;;;;7.95;6.93;;;12.60;56.70;;;;;;5079004;28;20028;-62
2023/03/05 11:25:51;;;;;;;6.47;5.60;;;12.30;52.90;;;;;;5082627;28;20381;-62
2023/03/05 11:28:19;;;;;;;6.65;5.35;;;12.20;54.50;;;;;;5093994;28;20047;-62
2023/03/05 11:31:02;;;;;;;5.18;4.15;;;12.40;52.50;;;;;;5094253;28;20039;-64
2023/03/05 11:33:29;;;;;;;6.00;4.78;;;12.60;54.80;;;;;;5094177;28;20021;-66
2023/03/05 11:36:27;;;;;;;6.45;4.93;;;12.80;51.80;;;;;;5094302;28;20103;-66
2023/03/05 11:38:58;;;;;;;5.60;4.50;;;12.60;50.00;;;;;;5085009;28;20078;-64
2023/03/05 11:41:31;;;;;;;4.20;3.80;;;12.60;50.80;;;;;;5093933;28;20028;-62
2023/03/05 11:44:02;;;;;;;4.53;3.88;;;12.80;56.40;;;;;;5094078;28;20461;-62
2023/03/05 11:46:33;;;;;;;5.22;4.70;;;13.00;52.30;;;;;;5093908;28;20024;-63
2023/03/05 11:48:59;;;;;;;5.60;4.57;;;12.80;53.50;;;;;;5093565;28;20028;-64
2023/03/05 11:51:31;;;;;;;4.95;4.10;;;12.80;50.30;;;;;;5093820;28;20024;-63
2023/03/05 11:54:04;;;;;;;3.72;3.40;;;12.50;50.60;;;;;;5093761;28;20378;-65
2023/03/05 11:56:35;;;;;;;4.53;3.85;;;12.60;52.90;;;;;;5093874;28;20077;-66
2023/03/05 11:59:05;;;;;;;7.05;6.25;;;13.10;51.30;;;;;;5093800;28;20458;-64
2023/03/05 12:01:39;;;;;;;5.72;4.63;;;13.30;48.80;;;;;;5093520;28;20024;-64
2023/03/05 12:04:07;;;;;;;9.35;6.43;;;13.10;48.80;;;;;;5093616;28;20030;-65
2023/03/05 12:06:42;;;;;;;5.18;4.47;;;13.20;51.90;;;;;;5093850;28;20036;-64
2023/03/05 12:09:32;;;;;;;4.53;3.97;;;13.40;51.00;;;;;;5093481;28;20072;-61
2023/03/05 12:12:05;;;;;;;4.18;3.78;;;13.80;50.10;;;;;;5093521;28;20032;-63
2023/03/05 12:15:09;;;;;;;4.55;4.03;;;14.00;48.60;;;;;;5093563;28;20020;-66
2023/03/05 12:17:44;;;;;;;6.53;5.65;;;14.20;48.90;;;;;;4991753;28;20134;-63
2023/03/05 12:20:18;;;;;;;5.20;4.50;;;14.30;47.80;;;;;;5080739;28;20106;-64
2023/03/05 12:22:44;;;;;;;4.38;3.90;;;14.50;46.10;;;;;;5093359;28;20055;-64
2023/03/05 12:26:04;;;;;;;5.00;4.50;;;14.50;46.60;;;;;;5093578;28;20052;-65
2023/03/05 12:28:32;;;;;;;5.40;3.88;;;14.60;46.40;;;;;;4991409;28;20448;-63
2023/03/05 12:31:00;;;;;;;3.80;3.38;;;14.50;49.40;;;;;;5073870;28;20493;-66
2023/03/05 12:33:35;;;;;;;3.50;3.08;;;14.30;47.60;;;;;;5093033;28;20027;-63
2023/03/05 12:36:16;;;;;;;4.28;3.42;;;14.30;46.80;;;;;;5093276;28;20048;-63
2023/03/05 12:39:00;;;;;;;3.15;2.85;;;14.50;47.20;;;;;;5093231;28;20020;-65
2023/03/05 12:41:29;;;;;;;5.22;4.53;;;14.60;49.90;;;;;;5093128;28;20024;-62
2023/03/05 12:44:06;;;;;;;7.25;5.15;;;14.50;47.80;;;;;;5093263;28;20020;-62
2023/03/05 12:46:34;;;;;;;5.15;4.65;;;14.50;44.40;;;;;;5093007;28;20028;-63
2023/03/05 12:49:25;;;;;;;8.95;7.88;;;14.30;46.70;;;;;;5093097;28;20085;-60
2023/03/05 12:51:54;;;;;;;6.35;5.75;;;14.50;45.00;;;;;;5079314;28;20078;-63
2023/03/05 12:54:27;;;;;;;6.18;5.47;;;14.80;45.90;;;;;;5093066;28;20488;-64
2023/03/05 12:56:56;;;;;;;7.20;5.40;;;14.90;44.40;;;;;;5093345;28;20020;-66
2023/03/05 12:59:28;;;;;;;6.60;5.82;;;14.70;47.10;;;;;;5093172;28;20111;-64
2023/03/05 13:01:59;;;;;;;6.18;5.40;;;14.50;45.70;;;;;;5093099;28;20016;-65
2023/03/05 13:04:31;;;;;;;11.50;9.50;;;14.50;44.60;;;;;;5093335;28;20028;-65
2023/03/05 13:06:59;;;;;;;8.57;7.65;;;14.20;44.00;;;;;;5092923;28;20051;-62
2023/03/05 13:09:30;;;;;;;10.13;8.88;;;14.10;44.90;;;;;;5093180;28;20043;-62
2023/03/05 13:11:57;;;;;;;5.22;4.45;;;14.30;45.60;;;;;;5092974;28;20119;-62
2023/03/05 13:14:22;;;;;;;5.40;4.78;;;14.20;43.90;;;;;;5093856;28;20020;-65
2023/03/05 13:16:49;;;;;;;4.82;3.70;;;13.70;45.90;;;;;;5096605;28;20024;-62
2023/03/05 13:19:16;;;;;;;4.57;4.05;;;13.70;46.40;;;;;;5096641;28;20024;-62
2023/03/05 13:21:43;;;;;;;4.10;3.72;;;13.90;47.40;;;;;;5096747;28;20367;-63
2023/03/05 13:24:17;;;;;;;2.80;2.60;;;14.20;45.90;;;;;;5096769;28;20466;-64
2023/03/05 13:26:42;;;;;;;3.00;2.70;;;14.60;46.90;;;;;;5096497;28;20065;-65
2023/03/05 13:29:12;;;;;;;3.63;2.78;;;15.00;46.30;;;;;;5096348;28;20484;-61
2023/03/05 13:31:50;;;;;;;3.95;3.50;;;15.40;48.80;;;;;;5096263;28;20474;-64
2023/03/05 13:34:36;;;;;;;4.40;4.00;;;15.60;46.20;;;;;;5096289;28;20028;-64
2023/03/05 13:37:17;;;;;;;5.05;4.18;;;15.40;43.30;;;;;;5095804;28;20032;-61
2023/03/05 13:40:14;;;;;;;4.57;4.18;;;15.40;43.20;;;;;;5096443;28;20023;-64
2023/03/05 13:42:39;;;;;;;3.90;3.53;;;15.30;42.90;;;;;;5096122;28;20045;-64
2023/03/05 13:45:21;;;;;;;3.72;3.42;;;15.60;42.70;;;;;;5096572;28;20095;-62
2023/03/05 13:47:59;;;;;;;3.50;3.13;;;16.00;43.30;;;;;;5096144;28;20031;-62
2023/03/05 13:50:31;;;;;;;3.95;3.58;;;16.10;39.60;;;;;;5096395;28;20382;-64
2023/03/05 13:53:18;;;;;;;3.35;3.05;;;15.70;41.40;;;;;;5096069;28;20020;-66
2023/03/05 13:55:44;;;;;;;3.22;2.92;;;15.70;44.60;;;;;;5096051;28;20490;-65
2023/03/05 13:58:46;;;;;;;3.47;3.15;;;15.90;43.80;;;;;;5095948;28;20390;-65
2023/03/05 14:01:24;;;;;;;2.90;2.70;;;16.30;40.80;;;;;;5095977;28;20024;-67
2023/03/05 14:03:52;;;;;;;2.90;2.70;;;16.20;40.50;;;;;;5095877;28;20032;-63
2023/03/05 14:06:21;;;;;;;3.20;2.90;;;16.10;40.50;;;;;;5095884;28;20030;-66
2023/03/05 14:09:16;;;;;;;3.28;2.97;;;16.30;42.30;;;;;;5095689;28;20488;-63
2023/03/05 14:11:50;;;;;;;3.17;2.78;;;16.60;40.50;;;;;;5095299;28;20028;-63
2023/03/05 14:14:17;;;;;;;4.22;3.83;;;16.40;41.40;;;;;;5095714;28;20024;-61
2023/03/05 14:16:43;;;;;;;3.92;3.53;;;16.40;41.10;;;;;;5095632;28;20077;-66
2023/03/05 14:19:33;;;;;;;4.07;3.70;;;16.20;42.00;;;;;;5095541;28;20036;-66
2023/03/05 14:21:59;;;;;;;4.40;3.42;;;16.10;40.40;;;;;;5095855;28;20032;-66
2023/03/05 14:24:27;;;;;;;4.10;3.70;;;16.10;41.10;;;;;;5095418;28;20020;-63
2023/03/05 14:27:04;;;;;;;5.22;4.72;;;16.00;40.20;;;;;;5094986;28;20045;-63
2023/03/05 14:29:31;;;;;;;5.90;5.30;;;16.00;40.50;;;;;;5095182;28;20410;-65
2023/03/05 14:32:05;;;;;;;4.28;3.88;;;16.10;41.10;;;;;;5095243;28;20528;-67
2023/03/05 14:34:41;;;;;;;3.92;3.53;;;15.90;40.70;;;;;;5095737;28;20047;-61
2023/03/05 14:37:20;;;;;;;3.42;3.15;;;15.70;41.20;;;;;;5095176;28;20109;-63
2023/03/05 14:40:04;;;;;;;3.45;3.15;;;15.50;40.30;;;;;;5095458;28;20028;-64
2023/03/05 14:42:33;;;;;;;3.50;3.20;;;15.20;40.40;;;;;;5095121;28;20028;-62
2023/03/05 14:45:08;;;;;;;3.63;3.15;;;14.60;41.00;;;;;;5095074;28;20020;-60
2023/03/05 14:47:33;;;;;;;3.10;2.90;;;14.60;41.80;;;;;;5095021;28;20023;-61
2023/03/05 14:49:59;;;;;;;3.42;3.13;;;14.70;42.30;;;;;;5094912;28;20020;-67
2023/03/05 14:52:25;;;;;;;3.10;2.85;;;14.80;42.80;;;;;;5094839;28;20031;-63
2023/03/05 14:54:52;;;;;;;4.05;3.42;;;14.80;42.90;;;;;;5094936;28;20054;-63
2023/03/05 14:57:22;;;;;;;3.53;3.22;;;14.80;42.40;;;;;;5094527;28;20012;-64
2023/03/05 14:59:48;;;;;;;3.95;3.25;;;14.70;43.50;;;;;;5094810;28;20028;-64
2023/03/05 15:02:16;;;;;;;6.20;5.60;;;14.60;43.00;;;;;;5094722;28;20401;-66
2023/03/05 15:04:44;;;;;;;5.10;4.60;;;14.30;43.10;;;;;;5094544;28;20111;-63
2023/03/05 15:07:19;;;;;;;4.82;4.25;;;14.10;43.70;;;;;;5094896;28;20030;-66
2023/03/05 15:09:45;;;;;;;4.97;4.47;;;14.10;45.10;;;;;;5094556;28;20354;-65
2023/03/05 15:12:12;;;;;;;5.15;4.50;;;14.00;44.60;;;;;;5094527;28;20039;-62
2023/03/05 15:14:40;;;;;;;5.03;4.45;;;13.90;46.50;;;;;;5094504;28;20069;-64
2023/03/05 15:17:12;;;;;;;6.30;5.45;;;14.10;45.50;;;;;;5094338;28;20110;-64
2023/03/05 15:19:38;;;;;;;5.53;4.93;;;14.00;44.20;;;;;;5094447;28;20095;-63
2023/03/05 15:22:04;;;;;;;7.35;6.63;;;14.00;46.00;;;;;;5094430;28;20121;-64
2023/03/05 15:24:29;;;;;;;6.22;5.63;;;14.00;45.80;;;;;;5094402;28;20020;-64
2023/03/05 15:26:55;;;;;;;6.40;5.30;;;13.90;45.90;;;;;;5093775;28;20017;-64
2023/03/05 15:29:20;;;;;;;8.10;6.80;;;13.90;46.20;;;;;;5094282;28;20028;-64
2023/03/05 15:31:46;;;;;;;16.23;12.68;;;13.90;46.50;;;;;;5094293;28;20016;-64
2023/03/05 15:34:12;;;;;;;11.27;9.90;;;14.00;45.90;;;;;;5094292;28;20529;-65
2023/03/05 15:36:37;;;;;;;14.15;10.38;;;13.90;46.00;;;;;;5093642;28;20116;-64
2023/03/05 15:39:03;;;;;;;10.77;8.95;;;13.90;46.10;;;;;;5093812;28;20035;-66
2023/03/05 15:41:29;;;;;;;10.02;7.95;;;13.90;45.90;;;;;;5093796;28;20129;-62
2023/03/05 15:43:54;;;;;;;7.25;6.55;;;13.90;45.70;;;;;;5094264;28;20020;-64
2023/03/05 15:46:20;;;;;;;6.53;5.93;;;13.80;45.30;;;;;;5094075;28;20422;-61
2023/03/05 15:48:48;;;;;;;14.70;10.38;;;13.70;45.70;;;;;;5093836;28;20024;-64
2023/03/05 15:51:16;;;;;;;15.63;11.35;;;13.70;46.20;;;;;;5094032;28;20016;-62
2023/03/05 15:53:43;;;;;;;21.45;14.68;;;13.60;46.70;;;;;;5094161;28;20051;-65
2023/03/05 15:56:14;;;;;;;27.13;23.02;;;13.60;47.90;;;;;;5093517;28;20020;-63
2023/03/05 15:58:42;;;;;;;35.42;30.83;;;13.30;49.80;;;;;;5093693;28;20464;-65
2023/03/05 16:01:11;;;;;;;55.22;44.38;;;12.80;51.20;;;;;;5093699;28;20059;-66
2023/03/05 16:03:37;;;;;;;76.22;54.28;;;12.10;52.80;;;;;;5093651;28;20103;-63
2023/03/05 16:06:03;;;;;;;84.15;61.92;;;11.80;53.90;;;;;;5093852;28;20105;-63
2023/03/05 16:08:32;;;;;;;107.50;80.10;;;11.50;54.50;;;;;;5093535;28;20031;-66
2023/03/05 16:10:59;;;;;;;98.18;76.05;;;11.10;55.70;;;;;;5093712;28;20545;-61
2023/03/05 16:13:27;;;;;;;115.88;89.07;;;11.00;56.50;;;;;;5093462;28;20097;-65
2023/03/05 16:15:53;;;;;;;114.20;87.35;;;10.70;57.30;;;;;;5093687;28;20036;-64
2023/03/05 16:18:20;;;;;;;189.27;142.90;;;10.30;58.50;;;;;;5093280;28;20020;-64
2023/03/05 16:20:46;;;;;;;175.32;142.65;;;9.80;60.90;;;;;;5093373;28;20486;-64
2023/03/05 16:23:12;;;;;;;180.43;151.10;;;9.50;62.30;;;;;;5093373;28;20111;-63
2023/03/05 16:25:38;;;;;;;213.13;170.52;;;9.20;64.30;;;;;;5093142;28;20146;-63
2023/03/05 16:28:04;;;;;;;179.52;144.55;;;8.90;66.40;;;;;;5093251;28;20048;-60
2023/03/05 16:30:31;;;;;;;156.25;129.63;;;8.70;67.70;;;;;;5093245;28;20031;-65
2023/03/05 16:32:58;;;;;;;155.23;123.72;;;8.50;70.20;;;;;;5093277;28;20059;-65
2023/03/05 16:35:24;;;;;;;140.50;108.97;;;8.30;74.10;;;;;;5093345;28;20367;-62
2023/03/05 16:37:50;;;;;;;165.45;127.70;;;8.20;75.30;;;;;;5093204;28;20038;-62
2023/03/05 16:40:17;;;;;;;188.23;145.20;;;8.10;79.20;;;;;;5092984;28;20381;-66
2023/03/05 16:42:43;;;;;;;199.35;146.77;;;8.00;82.20;;;;;;5093119;28;20583;-65
2023/03/05 16:45:10;;;;;;;208.63;144.35;;;7.80;85.30;;;;;;5093311;28;20020;-65
2023/03/05 16:47:36;;;;;;;200.27;140.65;;;7.90;85.50;;;;;;5093433;28;20466;-63
2023/03/05 16:50:02;;;;;;;182.38;121.38;;;8.10;84.70;;;;;;5095469;28;20055;-65
2023/03/05 16:52:28;;;;;;;131.50;86.22;;;8.10;85.30;;;;;;5097261;28;20023;-62
2023/03/05 16:54:54;;;;;;;197.10;126.80;;;8.10;82.50;;;;;;5097144;28;20373;-63
2023/03/05 16:57:22;;;;;;;217.68;141.75;;;8.00;84.70;;;;;;5097044;28;20035;-63
2023/03/05 16:59:48;;;;;;;211.02;136.48;;;8.00;85.90;;;;;;5097182;28;20066;-62
2023/03/05 17:02:14;;;;;;;208.02;135.55;;;7.90;86.90;;;;;;5096941;28;20020;-59
2023/03/05 17:04:40;;;;;;;173.25;110.63;;;8.00;85.90;;;;;;5096652;28;20079;-62
2023/03/05 17:07:06;;;;;;;165.05;97.45;;;8.10;84.70;;;;;;5097054;28;20020;-64
2023/03/05 17:09:32;;;;;;;154.80;96.20;;;8.20;83.60;;;;;;5096864;28;20027;-61
2023/03/05 17:11:58;;;;;;;146.13;98.18;;;8.10;83.00;;;;;;5096668;28;20024;-64
2023/03/05 17:14:24;;;;;;;216.82;139.57;;;8.00;84.30;;;;;;5096806;28;20020;-63
2023/03/05 17:16:50;;;;;;;264.25;164.80;;;7.90;85.70;;;;;;5096804;28;20107;-65
2023/03/05 17:19:16;;;;;;;248.25;156.75;;;7.70;89.60;;;;;;5096603;28;20100;-62
2023/03/05 17:21:41;;;;;;;227.13;143.88;;;7.60;90.90;;;;;;5096658;28;20070;-65
2023/03/05 17:24:07;;;;;;;221.48;139.90;;;7.50;90.80;;;;;;5095614;28;20044;-62
2023/03/05 17:26:35;;;;;;;206.93;132.57;;;7.50;91.20;;;;;;5095089;28;20044;-65
2023/03/05 17:29:02;;;;;;;190.77;119.75;;;7.50;91.00;;;;;;5095437;28;20411;-63
2023/03/05 17:31:28;;;;;;;194.85;128.48;;;7.60;90.70;;;;;;5095705;28;20527;-61
2023/03/05 17:33:55;;;;;;;203.75;134.70;;;7.60;90.60;;;;;;5095846;28;20023;-65
2023/03/05 17:36:22;;;;;;;150.30;102.72;;;7.50;91.10;;;;;;5095413;28;20028;-63
2023/03/05 17:38:48;;;;;;;158.77;104.72;;;7.40;90.30;;;;;;5095835;28;20032;-64
2023/03/05 17:41:15;;;;;;;132.48;87.13;;;7.40;91.30;;;;;;5096329;28;20024;-66
2023/03/05 17:43:41;;;;;;;153.20;105.55;;;7.30;91.30;;;;;;5096465;28;20032;-67
2023/03/05 17:46:07;;;;;;;121.85;82.90;;;7.30;92.80;;;;;;5096515;28;20031;-63
2023/03/05 17:48:34;;;;;;;102.93;69.22;;;7.20;91.90;;;;;;5096470;28;20031;-64
2023/03/05 17:51:00;;;;;;;97.50;63.55;;;7.30;91.20;;;;;;5095840;28;20027;-63
2023/03/05 17:53:26;;;;;;;94.65;59.38;;;7.20;91.40;;;;;;5096348;28;20050;-62
2023/03/05 17:55:52;;;;;;;96.45;61.92;;;7.30;91.20;;;;;;5096038;28;20055;-62
2023/03/05 17:58:17;;;;;;;88.35;58.22;;;7.30;91.30;;;;;;5095856;28;20028;-62
2023/03/05 18:00:43;;;;;;;89.10;59.92;;;7.40;91.10;;;;;;5095363;28;20020;-63
2023/03/05 18:03:09;;;;;;;81.63;56.53;;;7.40;91.50;;;;;;5095941;28;20074;-65
2023/03/05 18:05:36;;;;;;;86.43;57.20;;;7.40;91.80;;;;;;5095543;28;20087;-65
2023/03/05 18:08:02;;;;;;;93.70;61.83;;;7.40;91.80;;;;;;5095739;28;20028;-62
2023/03/05 18:10:29;;;;;;;94.85;63.35;;;7.40;91.40;;;;;;5095750;28;20028;-61
2023/03/05 18:12:55;;;;;;;87.03;59.92;;;7.30;91.60;;;;;;5095742;28;20016;-62
2023/03/05 18:15:22;;;;;;;88.70;61.47;;;7.30;91.70;;;;;;5095654;28;20032;-61
2023/03/05 18:17:48;;;;;;;82.22;60.92;;;7.30;91.10;;;;;;5095612;28;20028;-65
2023/03/05 18:20:32;;;;;;;108.90;73.55;;;7.20;90.70;;;;;;5095441;28;20359;-64
2023/03/05 18:22:58;;;;;;;;;;;7.20;91.30;;;;;;5096016;28;20028;-62
2023/03/05 18:25:29;;;;;;;101.00;69.07;;;7.10;91.60;;;;;;5095559;28;19904;-65
2023/03/05 18:28:06;;;;;;;99.72;69.10;;;7.00;92.50;;;;;;5095093;28;20043;-63
2023/03/05 18:30:32;;;;;;;100.22;65.65;;;6.90;93.10;;;;;;5095468;28;20103;-66
2023/03/05 18:32:58;;;;;;;105.63;68.65;;;6.90;93.50;;;;;;5095253;28;20039;-62
2023/03/05 18:35:24;;;;;;;107.63;70.30;;;7.00;92.90;;;;;;5095372;28;20111;-65
2023/03/05 18:37:50;;;;;;;91.35;63.95;;;7.00;92.20;;;;;;5095251;28;20111;-66
2023/03/05 18:40:22;;;;;;;85.43;57.13;;;7.00;92.00;;;;;;5095145;28;20429;-62
2023/03/05 18:42:48;;;;;;;71.13;50.10;;;6.90;92.00;;;;;;5095299;28;20377;-64
2023/03/05 18:45:16;;;;;;;64.50;46.88;;;6.90;91.40;;;;;;5095092;28;20468;-65
2023/03/05 18:47:42;;;;;;;62.17;44.70;;;7.00;91.30;;;;;;5094973;28;20031;-60
2023/03/05 18:50:13;;;;;;;57.30;40.60;;;7.00;91.10;;;;;;5094753;28;20024;-61
2023/03/05 18:52:40;;;;;;;64.93;46.75;;;7.10;91.30;;;;;;5094989;28;20477;-61
2023/03/05 18:55:07;;;;;;;66.43;45.92;;;7.00;90.90;;;;;;5094759;28;20466;-64
2023/03/05 18:57:33;;;;;;;69.43;50.92;;;7.00;90.80;;;;;;5094764;28;20036;-63
2023/03/05 18:59:59;;;;;;;57.42;42.13;;;6.90;90.70;;;;;;5094798;28;20377;-66
2023/03/05 19:02:25;;;;;;;73.43;50.70;;;6.90;91.10;;;;;;5094936;28;20432;-61
2023/03/05 19:04:51;;;;;;;76.55;51.95;;;6.80;91.00;;;;;;5094609;28;20024;-61
2023/03/05 19:07:16;;;;;;;71.63;48.83;;;6.60;91.70;;;;;;5094685;28;20500;-63
2023/03/05 19:09:50;;;;;;;73.53;48.63;;;6.50;92.60;;;;;;5094683;28;20456;-61
2023/03/05 19:12:21;;;;;;;69.68;48.17;;;6.50;92.50;;;;;;5093869;28;20059;-63
2023/03/05 19:14:47;;;;;;;59.30;42.42;;;6.50;92.60;;;;;;5094532;28;20058;-60
2023/03/05 19:17:12;;;;;;;63.92;42.72;;;6.50;92.40;;;;;;5094291;28;20052;-61
2023/03/05 19:19:41;;;;;;;57.10;40.10;;;6.50;91.70;;;;;;5094412;28;20093;-62
2023/03/05 19:22:08;;;;;;;50.95;36.78;;;6.50;91.70;;;;;;5094410;28;20043;-61
2023/03/05 19:24:36;;;;;;;55.65;39.38;;;6.50;91.70;;;;;;5094481;28;20069;-65
2023/03/05 19:27:09;;;;;;;59.55;40.55;;;6.40;92.00;;;;;;5094248;28;20078;-64
2023/03/05 19:29:36;;;;;;;49.90;36.75;;;6.30;92.10;;;;;;5094330;28;20059;-61
2023/03/05 19:32:03;;;;;;;63.95;43.42;;;6.20;92.30;;;;;;5094092;28;20385;-63
2023/03/05 19:34:29;;;;;;;53.85;37.47;;;6.20;92.70;;;;;;5093920;28;20020;-62
2023/03/05 19:36:55;;;;;;;63.85;42.45;;;6.10;93.60;;;;;;5093678;28;20024;-66
2023/03/05 19:39:20;;;;;;;61.78;42.85;;;6.00;93.20;;;;;;5093788;28;20051;-62
2023/03/05 19:41:46;;;;;;;73.57;46.17;;;5.90;93.70;;;;;;5094287;28;20466;-66
2023/03/05 19:44:12;;;;;;;61.50;40.55;;;5.90;94.30;;;;;;5094048;28;20027;-61
2023/03/05 19:46:40;;;;;;;63.00;42.55;;;6.00;94.70;;;;;;5093889;28;20450;-65
2023/03/05 19:49:06;;;;;;;60.95;42.00;;;6.00;94.80;;;;;;5094003;28;20028;-66
2023/03/05 19:51:32;;;;;;;78.47;51.75;;;5.90;94.40;;;;;;5093995;28;20016;-64
2023/03/05 19:53:58;;;;;;;71.78;46.10;;;5.90;94.00;;;;;;5093681;28;20363;-64
2023/03/05 19:56:24;;;;;;;74.20;48.75;;;5.70;95.00;;;;;;5093814;28;20066;-62
2023/03/05 19:58:50;;;;;;;69.28;47.42;;;5.60;95.20;;;;;;5094047;28;20040;-64
2023/03/05 20:01:16;;;;;;;70.43;46.05;;;5.50;95.80;;;;;;5093685;28;20371;-62
2023/03/05 20:03:50;;;;;;;60.55;41.28;;;5.40;96.70;;;;;;5093455;28;20020;-61
2023/03/05 20:06:16;;;;;;;61.25;37.95;;;5.30;97.40;;;;;;5093966;28;20103;-65
2023/03/05 20:08:43;;;;;;;59.85;38.70;;;5.30;97.50;;;;;;5093557;28;20074;-64
2023/03/05 20:11:11;;;;;;;47.75;32.75;;;5.40;96.90;;;;;;5093567;28;20546;-60
2023/03/05 20:13:37;;;;;;;49.25;34.33;;;5.30;97.10;;;;;;5093509;28;20058;-64
2023/03/05 20:16:03;;;;;;;53.92;36.22;;;5.30;96.60;;;;;;5093509;28;20056;-64
2023/03/05 20:18:29;;;;;;;60.15;41.33;;;5.10;97.70;;;;;;5093303;28;20122;-63
2023/03/05 20:21:00;;;;;;;61.03;41.03;;;4.90;98.80;;;;;;5093697;28;20024;-66
2023/03/05 20:23:27;;;;;;;57.47;39.63;;;4.80;99.80;;;;;;5093467;28;20108;-61
2023/03/05 20:25:54;;;;;;;60.50;39.22;;;4.70;99.90;;;;;;5093414;28;20051;-62
2023/03/05 20:28:24;;;;;;;56.08;36.38;;;4.70;99.90;;;;;;5093048;28;20062;-65
2023/03/05 20:30:55;;;;;;;48.80;33.88;;;4.80;99.90;;;;;;5093365;28;20024;-67
2023/03/05 20:33:21;;;;;;;55.55;38.28;;;4.90;99.90;;;;;;5093618;28;20035;-62
2023/03/05 20:35:47;;;;;;;51.85;35.03;;;4.90;99.90;;;;;;5093391;28;20026;-61
2023/03/05 20:38:23;;;;;;;56.17;37.80;;;4.90;99.90;;;;;;5093135;28;20482;-66
2023/03/05 20:40:55;;;;;;;83.63;52.53;;;4.90;99.90;;;;;;5093239;28;20020;-62
2023/03/05 20:43:22;;;;;;;77.05;47.17;;;4.80;99.90;;;;;;5093257;28;20547;-63
2023/03/05 20:45:47;;;;;;;73.32;46.80;;;4.40;99.90;;;;;;5092944;28;20024;-63
2023/03/05 20:48:13;;;;;;;72.45;46.03;;;4.20;99.90;;;;;;5093233;28;20024;-64
2023/03/05 20:50:39;;;;;;;60.72;40.00;;;4.20;99.90;;;;;;5093244;28;20020;-63
2023/03/05 20:53:07;;;;;;;55.92;37.50;;;4.30;99.90;;;;;;5093021;28;20028;-65
2023/03/05 20:55:33;;;;;;;61.92;42.83;;;4.50;99.90;;;;;;5093215;28;20505;-66
2023/03/05 20:57:59;;;;;;;65.60;43.08;;;4.70;99.90;;;;;;5093020;28;20077;-66
2023/03/05 21:00:25;;;;;;;56.58;38.60;;;4.70;99.90;;;;;;5092766;28;20024;-66
2023/03/05 21:02:53;;;;;;;68.95;42.53;;;4.70;99.90;;;;;;5092941;28;20046;-62
2023/03/05 21:05:20;;;;;;;64.85;40.38;;;4.80;99.90;;;;;;5093109;28;20074;-62
2023/03/05 21:07:47;;;;;;;55.45;37.20;;;4.80;99.90;;;;;;5092969;28;20050;-62
2023/03/05 21:10:15;;;;;;;63.75;41.38;;;4.80;99.90;;;;;;5093020;28;20384;-64
2023/03/05 21:12:41;;;;;;;54.10;36.30;;;4.90;99.90;;;;;;5093022;28;20024;-66
2023/03/05 21:15:08;;;;;;;58.60;38.42;;;4.90;99.90;;;;;;5092720;28;20449;-63
2023/03/05 21:17:34;;;;;;;55.50;35.70;;;4.90;99.90;;;;;;5092929;28;20052;-62
2023/03/05 21:20:00;;;;;;;53.30;34.88;;;4.90;99.90;;;;;;5092875;28;20063;-63
2023/03/05 21:22:26;;;;;;;50.45;33.78;;;5.00;99.90;;;;;;5092794;28;20024;-62
2023/03/05 21:25:03;;;;;;;44.35;31.13;;;5.00;99.90;;;;;;5093024;28;20461;-64